Allendale, Michigan
Current Conditions -  °F | °C
As of 1:21 PM on Friday 19 Dec 2014 (Local Time) from KBIV Reporting Station
Few Clouds Few Clouds  
Wind Chill: 32°   Ceiling: Unl
Heat Index: 32°   Visibility: 10mi
Dew Point: 22°   Wind: 3mph
Humidity: 66%   Direction: 120°ESE
Pressure: 30.27"   Gusts: NA
Location:  42.97°N, 85.95°W
Report Text: KBIV 191821Z AUTO 12003KT 10SM FEW020 00/M06 A3027 RMK AO2 T00001056
Loading
Personal Weather Stations






























Interactive Weather Map New forecast layout! Learn more

10-Day Weather Forecast

Advertisements
Track Severe Weather on mobile